Search for airport 
image banner adimage banner adimage banner ad
image banner ad

KIPT - Williamsport Rgnl

Located in Williamsport, United States

ICAO - IPT, IATA - IPT

Data provided by Airmate  

General information

Coordinates: N41°14'30" W76°55'19"
Elevation is 528 feet MSL.
Magnetic variation is -10° East
View others Airports in Pennsylvania

Operational data

Special qualification required
Current time UTC:
Current local time:
Weather
METAR: KIPT 091354Z 28006KT 10SM CLR 09/02 A3006 RMK AO2 SLP181 T00890022
TAF: KIPT 091131Z 0912/1012 27005KT P6SM SCT100 FM091600 15006KT 4SM -RA BR OVC025 FM092000 12007KT 3SM -RA BR OVC008 FM100400 06008G15KT 2SM -RA BR OVC006 FM101100 35008G15KT P6SM BKN009 OVC015
View NOTAMs / SUP AIP / TFR affecting this airport [VIEW]
Communications frequencies: [VIEW]

Runways:

RWY identifierQFULength (ft)Width (ft)SurfaceLDA (ft)
0977°6825150ASPH6073
27257°6825150ASPH6063
12106°4273150ASPH4273
30286°4273150ASPH4273

Airport contact information

Address: Williamsport United States

Other aviation service providers

Flight schools

Energy Aviation

Energy Aviation
info@energyipt.com+1(570)368-2651

Satellite view of KIPT